Time;durP1;ratioP1;P1;durP2;ratioP2;P2;SDS_P1;SDS_P2;PMS_P1;PMS_P2;Temp;Humidity;BMP_temperature;BMP_pressure;BME280_temperature;BME280_humidity;BME280_pressure;Samples;Min_cycle;Max_cycle;Signal;HPM_P1;HPM_P2
2023/06/04 00:01:23;;;;;;;2.92;2.00;;;11.30;99.90;;;;;;5054285;28;20497;-34
2023/06/04 00:03:48;;;;;;;5.25;2.13;;;11.30;99.90;;;;;;5054599;28;20037;-33
2023/06/04 00:06:14;;;;;;;2.58;2.30;;;11.30;99.90;;;;;;5054049;28;20427;-32
2023/06/04 00:08:40;;;;;;;2.63;1.90;;;11.20;99.90;;;;;;5054014;28;20036;-34
2023/06/04 00:11:06;;;;;;;2.67;2.05;;;11.20;99.90;;;;;;5054326;28;20060;-33
2023/06/04 00:13:32;;;;;;;4.10;2.20;;;11.20;99.90;;;;;;5054024;28;20498;-34
2023/06/04 00:15:57;;;;;;;3.80;2.58;;;11.10;99.90;;;;;;5054182;28;20036;-33
2023/06/04 00:18:23;;;;;;;4.25;2.47;;;11.10;99.90;;;;;;5055431;28;20036;-33
2023/06/04 00:20:49;;;;;;;3.42;2.92;;;11.00;99.90;;;;;;5054125;28;20381;-33
2023/06/04 00:23:15;;;;;;;2.80;2.47;;;11.00;99.90;;;;;;5053802;28;20041;-33
2023/06/04 00:25:41;;;;;;;2.92;2.08;;;11.00;99.90;;;;;;5055082;28;20501;-33
2023/06/04 00:28:06;;;;;;;5.45;2.53;;;10.90;99.90;;;;;;5055025;28;20398;-33
2023/06/04 00:30:32;;;;;;;5.10;2.50;;;10.90;99.90;;;;;;5070313;28;20044;-31
2023/06/04 00:32:59;;;;;;;4.72;2.40;;;10.80;99.90;;;;;;5070526;28;20029;-32
2023/06/04 00:35:24;;;;;;;2.47;2.28;;;10.90;99.90;;;;;;5070634;28;20432;-33
2023/06/04 00:37:50;;;;;;;5.07;2.70;;;10.80;99.90;;;;;;5070527;28;20070;-33
2023/06/04 00:40:16;;;;;;;3.97;2.72;;;10.70;99.90;;;;;;5070494;28;20390;-32
2023/06/04 00:42:42;;;;;;;3.40;2.50;;;10.70;99.90;;;;;;5054784;28;20493;-33
2023/06/04 00:45:09;;;;;;;3.80;2.40;;;10.70;99.90;;;;;;5070450;28;20041;-33
2023/06/04 00:47:35;;;;;;;6.47;3.10;;;10.60;99.90;;;;;;5070073;28;20108;-32
2023/06/04 00:50:01;;;;;;;3.95;2.88;;;10.60;99.90;;;;;;5069812;28;20047;-32
2023/06/04 00:52:28;;;;;;;4.93;2.85;;;10.60;99.90;;;;;;5054958;28;20044;-32
2023/06/04 00:54:56;;;;;;;4.70;2.85;;;10.50;99.90;;;;;;5070216;28;20043;-33
2023/06/04 00:57:22;;;;;;;4.68;2.78;;;10.50;99.90;;;;;;5069882;28;20037;-33
2023/06/04 00:59:48;;;;;;;5.95;3.15;;;10.50;99.90;;;;;;5061979;28;20478;-33
2023/06/04 01:02:23;;;;;;;5.10;2.47;;;10.50;99.90;;;;;;5033509;28;20048;-33
2023/06/04 01:05:09;;;;;;;3.22;2.60;;;10.40;99.90;;;;;;5033652;28;20608;-33
2023/06/04 01:07:36;;;;;;;5.05;3.10;;;10.40;99.90;;;;;;5033459;28;20445;-32
2023/06/04 01:10:02;;;;;;;5.63;3.28;;;10.30;99.90;;;;;;5033086;28;20033;-32
2023/06/04 01:12:28;;;;;;;4.53;3.45;;;10.30;99.90;;;;;;5033241;28;20033;-33
2023/06/04 01:14:54;;;;;;;6.38;3.30;;;10.30;99.90;;;;;;5033351;28;20552;-33
2023/06/04 01:17:41;;;;;;;6.47;3.20;;;10.30;99.90;;;;;;5033195;28;20041;-32
2023/06/04 01:20:08;;;;;;;5.90;3.08;;;10.30;99.90;;;;;;5033262;28;20520;-33
2023/06/04 01:22:56;;;;;;;3.80;2.83;;;10.30;99.90;;;;;;5033078;28;20486;-33
2023/06/04 01:25:39;;;;;;;6.78;3.22;;;10.30;99.90;;;;;;5033163;28;20059;-32
2023/06/04 01:28:07;;;;;;;7.57;3.93;;;10.20;99.90;;;;;;5032856;28;20045;-32
2023/06/04 01:30:42;;;;;;;5.78;3.38;;;10.20;99.90;;;;;;5033203;28;20073;-32
2023/06/04 01:33:10;;;;;;;6.55;3.58;;;10.10;99.90;;;;;;5032633;28;20040;-33
2023/06/04 01:35:36;;;;;;;6.13;3.88;;;10.20;99.90;;;;;;5016134;28;20045;-32
2023/06/04 01:38:02;;;;;;;6.22;4.07;;;10.10;99.90;;;;;;5050785;28;20119;-32
2023/06/04 01:40:28;;;;;;;8.05;4.22;;;10.10;99.90;;;;;;5069427;28;20111;-32
2023/06/04 01:42:55;;;;;;;8.85;4.03;;;10.00;99.90;;;;;;5069340;28;20048;-32
2023/06/04 01:45:22;;;;;;;6.90;3.67;;;10.00;99.90;;;;;;5069172;28;20080;-32
2023/06/04 01:47:48;;;;;;;6.47;3.92;;;10.00;99.90;;;;;;5054764;28;20041;-33
2023/06/04 01:50:14;;;;;;;6.15;3.70;;;10.00;99.90;;;;;;5068670;28;20044;-32
2023/06/04 01:52:40;;;;;;;5.70;3.78;;;10.00;99.90;;;;;;5069122;28;20086;-33
2023/06/04 01:55:08;;;;;;;7.70;4.15;;;9.90;99.90;;;;;;5069099;28;20068;-33
2023/06/04 01:57:38;;;;;;;5.75;3.15;;;9.90;99.90;;;;;;5068788;28;20037;-32
2023/06/04 02:00:08;;;;;;;5.88;3.28;;;9.90;99.90;;;;;;5054160;28;20042;-33
2023/06/04 02:02:33;;;;;;;7.53;3.45;;;9.90;99.90;;;;;;5031704;28;20080;-34
2023/06/04 02:04:59;;;;;;;8.82;3.88;;;9.90;99.90;;;;;;5032150;28;20128;-32
2023/06/04 02:07:25;;;;;;;4.38;3.03;;;9.80;99.90;;;;;;5032161;28;20034;-33
2023/06/04 02:09:51;;;;;;;7.75;4.00;;;9.90;99.90;;;;;;5034646;28;20077;-32
2023/06/04 02:12:17;;;;;;;4.88;3.17;;;9.80;99.90;;;;;;5052050;28;20070;-32
2023/06/04 02:14:46;;;;;;;5.13;3.30;;;9.80;99.90;;;;;;5052099;28;20040;-32
2023/06/04 02:17:12;;;;;;;6.45;3.70;;;9.80;99.90;;;;;;5051963;28;20485;-32
2023/06/04 02:19:49;;;;;;;7.32;3.50;;;9.70;99.90;;;;;;5052069;28;20048;-33
2023/06/04 02:22:19;;;;;;;6.22;3.85;;;9.70;99.90;;;;;;5051643;28;20120;-32
2023/06/04 02:24:45;;;;;;;9.25;4.03;;;9.70;99.90;;;;;;5051968;28;20048;-33
2023/06/04 02:27:12;;;;;;;5.82;3.60;;;9.70;99.90;;;;;;5051515;28;20505;-32
2023/06/04 02:29:41;;;;;;;6.55;3.40;;;9.70;99.90;;;;;;5051650;28;20075;-32
2023/06/04 02:32:08;;;;;;;6.85;4.03;;;9.60;99.90;;;;;;5051739;28;20045;-33
2023/06/04 02:34:36;;;;;;;7.40;3.95;;;9.60;99.90;;;;;;5051355;28;20037;-32
2023/06/04 02:37:02;;;;;;;7.60;3.70;;;9.60;99.90;;;;;;5051267;28;20080;-33
2023/06/04 02:39:28;;;;;;;7.22;3.55;;;9.60;99.90;;;;;;5051511;28;20373;-33
2023/06/04 02:41:54;;;;;;;7.72;3.78;;;9.60;99.90;;;;;;5034709;28;20091;-33
2023/06/04 02:44:21;;;;;;;11.32;5.10;;;9.50;99.90;;;;;;5051475;28;20045;-32
2023/06/04 02:46:46;;;;;;;6.85;4.38;;;9.50;99.90;;;;;;5051410;28;20549;-32
2023/06/04 02:49:13;;;;;;;11.18;4.72;;;9.50;99.90;;;;;;5051049;28;20078;-33
2023/06/04 02:51:43;;;;;;;8.93;4.65;;;9.50;99.90;;;;;;5051419;28;20037;-33
2023/06/04 02:54:09;;;;;;;8.75;4.43;;;9.40;99.90;;;;;;5051402;28;20044;-32
2023/06/04 02:56:35;;;;;;;7.25;4.70;;;9.40;99.90;;;;;;5050966;28;20123;-33
2023/06/04 02:59:01;;;;;;;9.25;5.20;;;9.50;99.90;;;;;;5050826;28;20040;-32
2023/06/04 03:01:27;;;;;;;7.78;4.78;;;9.40;99.90;;;;;;5051239;28;20087;-32
2023/06/04 03:03:54;;;;;;;12.70;5.45;;;9.40;99.90;;;;;;5050792;28;20091;-33
2023/06/04 03:06:21;;;;;;;9.55;5.50;;;9.40;99.90;;;;;;5050688;28;20037;-33
2023/06/04 03:08:51;;;;;;;9.13;5.65;;;9.40;99.90;;;;;;5050953;28;20406;-34
2023/06/04 03:11:21;;;;;;;9.40;4.93;;;9.40;99.90;;;;;;5050951;28;20119;-33
2023/06/04 03:13:48;;;;;;;7.35;5.18;;;9.30;99.90;;;;;;5050982;28;20555;-32
2023/06/04 03:16:14;;;;;;;9.75;5.47;;;9.40;99.90;;;;;;5050705;28;20124;-33
2023/06/04 03:18:40;;;;;;;11.90;5.15;;;9.30;99.90;;;;;;5050797;28;20441;-33
2023/06/04 03:21:07;;;;;;;7.70;5.38;;;9.30;99.90;;;;;;5050929;28;20071;-33
2023/06/04 03:23:33;;;;;;;8.57;5.32;;;9.30;99.90;;;;;;5050909;28;20490;-33
2023/06/04 03:26:12;;;;;;;8.43;5.82;;;9.30;99.90;;;;;;5033854;28;20045;-33
2023/06/04 03:28:38;;;;;;;11.70;5.88;;;9.30;99.90;;;;;;5050594;28;20044;-36
2023/06/04 03:31:04;;;;;;;11.75;5.90;;;9.30;99.90;;;;;;5050812;28;20041;-33
2023/06/04 03:33:30;;;;;;;9.43;5.65;;;9.30;99.90;;;;;;5050724;28;20123;-33
2023/06/04 03:35:58;;;;;;;11.07;6.40;;;9.30;99.90;;;;;;5050886;28;20041;-32
2023/06/04 03:38:27;;;;;;;11.27;6.10;;;9.30;99.90;;;;;;5050716;28;20037;-32
2023/06/04 03:40:53;;;;;;;10.77;5.65;;;9.30;99.90;;;;;;5050372;28;20043;-32
2023/06/04 03:43:20;;;;;;;9.63;5.95;;;9.30;99.90;;;;;;5050717;28;20117;-33
2023/06/04 03:45:46;;;;;;;7.78;5.65;;;9.30;99.90;;;;;;5050369;28;20033;-32
2023/06/04 03:48:11;;;;;;;6.63;5.45;;;9.30;99.90;;;;;;5050263;28;20044;-32
2023/06/04 03:50:37;;;;;;;11.98;6.05;;;9.30;99.90;;;;;;5051831;28;20072;-32
2023/06/04 03:53:06;;;;;;;12.93;5.72;;;9.30;99.90;;;;;;5050710;28;20033;-33
2023/06/04 03:55:32;;;;;;;13.68;5.45;;;9.30;99.90;;;;;;5067394;28;20068;-32
2023/06/04 03:57:58;;;;;;;10.23;5.93;;;9.30;99.90;;;;;;5050269;28;20538;-33
2023/06/04 04:00:24;;;;;;;7.75;5.10;;;9.30;99.90;;;;;;5050612;28;20049;-32
2023/06/04 04:02:50;;;;;;;9.65;5.85;;;9.30;99.90;;;;;;5050428;28;20069;-32
2023/06/04 04:05:16;;;;;;;7.75;5.72;;;9.40;99.90;;;;;;5050496;28;20521;-33
2023/06/04 04:07:41;;;;;;;8.18;5.63;;;9.40;99.90;;;;;;5050368;28;20034;-34
2023/06/04 04:10:07;;;;;;;6.13;5.18;;;9.40;99.90;;;;;;5033799;28;20044;-32
2023/06/04 04:12:33;;;;;;;10.65;6.30;;;9.40;99.90;;;;;;5050127;28;20037;-32
2023/06/04 04:14:59;;;;;;;9.55;5.93;;;9.50;99.90;;;;;;5050354;28;20044;-32
2023/06/04 04:17:26;;;;;;;13.57;5.38;;;9.50;99.90;;;;;;5050417;28;20532;-32
2023/06/04 04:19:51;;;;;;;11.60;5.93;;;9.50;99.90;;;;;;5050352;28;20041;-33
2023/06/04 04:22:17;;;;;;;12.68;6.38;;;9.60;99.90;;;;;;5050391;28;20509;-32
2023/06/04 04:24:44;;;;;;;14.27;6.90;;;9.60;99.90;;;;;;5051855;28;20037;-33
2023/06/04 04:27:13;;;;;;;10.25;6.50;;;9.60;99.90;;;;;;5053691;28;20041;-33
2023/06/04 04:29:39;;;;;;;12.95;7.50;;;9.70;99.90;;;;;;5055252;28;20033;-32
2023/06/04 04:32:10;;;;;;;13.82;7.35;;;9.80;99.90;;;;;;5037591;28;20059;-33
2023/06/04 04:34:42;;;;;;;12.48;6.80;;;9.80;99.90;;;;;;5054126;28;20389;-33
2023/06/04 04:37:09;;;;;;;10.88;7.22;;;9.90;99.90;;;;;;5054412;28;20041;-32
2023/06/04 04:39:36;;;;;;;12.07;6.85;;;9.90;99.90;;;;;;5053805;28;20402;-33
2023/06/04 04:42:02;;;;;;;11.30;7.22;;;9.90;99.90;;;;;;5053900;28;20563;-32
2023/06/04 04:44:28;;;;;;;11.30;7.18;;;10.00;99.90;;;;;;5053580;28;20080;-32
2023/06/04 04:46:54;;;;;;;14.38;8.13;;;10.10;99.90;;;;;;5053418;28;20045;-33
2023/06/04 04:49:20;;;;;;;13.60;7.57;;;10.10;99.90;;;;;;5053742;28;20037;-33
2023/06/04 04:51:46;;;;;;;10.60;7.07;;;10.20;99.90;;;;;;5053714;28;20486;-33
2023/06/04 04:54:12;;;;;;;15.27;7.60;;;10.30;99.90;;;;;;5053617;28;20106;-32
2023/06/04 04:56:38;;;;;;;14.75;7.50;;;10.30;99.90;;;;;;5053527;28;20033;-32
2023/06/04 04:59:04;;;;;;;11.88;7.93;;;10.40;99.90;;;;;;5054744;28;20033;-33
2023/06/04 05:01:30;;;;;;;14.60;8.18;;;10.50;99.90;;;;;;5070190;28;20494;-32
2023/06/04 05:03:56;;;;;;;13.70;7.68;;;10.50;99.90;;;;;;5053402;28;20580;-33
2023/06/04 05:06:22;;;;;;;9.48;6.15;;;10.60;99.90;;;;;;5053490;28;20036;-33
2023/06/04 05:08:48;;;;;;;12.23;6.85;;;10.70;99.90;;;;;;5053352;28;20044;-32
2023/06/04 05:11:14;;;;;;;12.50;6.50;;;10.70;99.90;;;;;;5053043;28;20040;-32
2023/06/04 05:13:41;;;;;;;14.68;7.38;;;10.80;99.90;;;;;;5036283;28;20045;-33
2023/06/04 05:16:07;;;;;;;11.32;6.70;;;10.90;99.90;;;;;;5053192;28;20472;-33
2023/06/04 05:18:34;;;;;;;11.40;7.30;;;11.00;99.90;;;;;;5053069;28;20040;-32
2023/06/04 05:21:02;;;;;;;10.70;6.93;;;11.10;99.90;;;;;;5053181;28;20394;-33
2023/06/04 05:23:29;;;;;;;10.07;7.60;;;11.20;99.90;;;;;;5053027;28;20556;-32
2023/06/04 05:25:56;;;;;;;11.52;6.68;;;11.30;99.90;;;;;;5052884;28;20523;-33
2023/06/04 05:28:25;;;;;;;10.85;6.78;;;11.40;99.90;;;;;;5053057;28;20120;-33
2023/06/04 05:30:51;;;;;;;12.63;6.63;;;11.50;99.90;;;;;;5053111;28;20036;-32
2023/06/04 05:33:18;;;;;;;11.60;6.60;;;11.60;99.90;;;;;;5052572;28;20076;-32
2023/06/04 05:35:51;;;;;;;9.43;6.18;;;11.70;99.90;;;;;;5051738;28;20083;-33
2023/06/04 05:38:25;;;;;;;12.70;6.50;;;11.80;99.90;;;;;;5046880;28;20367;-32
2023/06/04 05:40:55;;;;;;;15.13;7.93;;;12.00;99.90;;;;;;5032774;28;20121;-32
2023/06/04 05:43:22;;;;;;;10.75;6.18;;;12.10;99.90;;;;;;5033888;28;20046;-32
2023/06/04 05:45:48;;;;;;;10.32;6.13;;;12.20;99.90;;;;;;5052454;28;20041;-33
2023/06/04 05:48:14;;;;;;;9.57;6.55;;;12.40;99.90;;;;;;5052273;28;20037;-33
2023/06/04 05:50:40;;;;;;;11.05;5.80;;;12.50;99.90;;;;;;5052559;28;20047;-32
2023/06/04 05:53:06;;;;;;;8.65;5.55;;;12.60;99.90;;;;;;5047566;28;20033;-33
2023/06/04 05:55:31;;;;;;;11.63;6.38;;;12.70;99.90;;;;;;5032576;28;20426;-33
2023/06/04 05:57:57;;;;;;;11.32;5.68;;;12.90;99.90;;;;;;5032406;28;20464;-33
2023/06/04 06:00:23;;;;;;;11.90;5.55;;;12.90;99.90;;;;;;5034616;28;20387;-32
2023/06/04 06:02:53;;;;;;;7.57;5.20;;;13.00;99.90;;;;;;5052394;28;20486;-33
2023/06/04 06:05:19;;;;;;;9.05;5.35;;;13.10;99.90;;;;;;5052218;28;20402;-33
2023/06/04 06:07:46;;;;;;;8.27;5.35;;;13.30;99.90;;;;;;5052069;28;20090;-33
2023/06/04 06:10:12;;;;;;;8.68;5.53;;;13.40;99.90;;;;;;5035744;28;20033;-33
2023/06/04 06:12:37;;;;;;;8.00;4.72;;;13.50;99.90;;;;;;5052037;28;20048;-33
2023/06/04 06:15:05;;;;;;;9.75;5.60;;;13.60;99.90;;;;;;5051807;28;20509;-33
2023/06/04 06:17:32;;;;;;;10.18;5.25;;;13.70;99.90;;;;;;5052065;28;20533;-33
2023/06/04 06:19:59;;;;;;;11.63;5.20;;;13.70;99.90;;;;;;5052034;28;20444;-33
2023/06/04 06:22:25;;;;;;;7.03;4.95;;;13.90;99.90;;;;;;5051835;28;20078;-33
2023/06/04 06:24:51;;;;;;;7.47;5.50;;;14.00;99.90;;;;;;5034972;28;20044;-33
2023/06/04 06:27:17;;;;;;;6.72;5.32;;;14.10;99.90;;;;;;5051334;28;20045;-33
2023/06/04 06:29:44;;;;;;;10.95;5.53;;;14.20;99.90;;;;;;5053012;28;20064;-33
2023/06/04 06:32:11;;;;;;;8.65;5.07;;;14.20;99.90;;;;;;5051551;28;20043;-33
2023/06/04 06:34:39;;;;;;;8.95;5.13;;;14.20;99.90;;;;;;5051738;28;20135;-33
2023/06/04 06:37:07;;;;;;;8.40;5.35;;;14.40;99.90;;;;;;5051759;28;20455;-33
2023/06/04 06:39:32;;;;;;;8.63;5.72;;;14.40;99.90;;;;;;5051513;28;20494;-33
2023/06/04 06:41:58;;;;;;;7.45;4.68;;;14.50;99.90;;;;;;5051565;28;20040;-33
2023/06/04 06:44:24;;;;;;;7.80;5.25;;;14.60;99.90;;;;;;5051609;28;20167;-33
2023/06/04 06:46:50;;;;;;;7.35;4.82;;;14.70;99.90;;;;;;5050654;28;20037;-32
2023/06/04 06:49:16;;;;;;;7.03;5.43;;;14.80;99.90;;;;;;5051135;28;20044;-33
2023/06/04 06:51:42;;;;;;;6.70;5.05;;;14.90;99.90;;;;;;5051400;28;20559;-33
2023/06/04 06:54:14;;;;;;;7.68;4.90;;;15.00;99.90;;;;;;5051053;28;20060;-33
2023/06/04 06:56:40;;;;;;;9.02;5.03;;;15.10;99.90;;;;;;5050930;28;20112;-33
2023/06/04 06:59:05;;;;;;;9.95;5.03;;;15.20;99.90;;;;;;5050923;28;20124;-33
2023/06/04 07:01:33;;;;;;;9.52;4.97;;;15.40;99.90;;;;;;5051269;28;20485;-34
2023/06/04 07:03:59;;;;;;;8.00;4.55;;;15.50;99.90;;;;;;5050989;28;20123;-33
2023/06/04 07:06:25;;;;;;;4.78;4.07;;;15.70;99.90;;;;;;5050843;28;20104;-33
2023/06/04 07:08:52;;;;;;;8.32;5.03;;;15.80;99.90;;;;;;5050714;28;20056;-33
2023/06/04 07:11:18;;;;;;;9.43;4.30;;;15.90;99.90;;;;;;5050526;28;20041;-33
2023/06/04 07:13:43;;;;;;;5.97;3.63;;;16.10;99.90;;;;;;5050237;28;20040;-33
2023/06/04 07:16:09;;;;;;;5.32;4.53;;;16.20;99.90;;;;;;5050809;28;20071;-33
2023/06/04 07:18:35;;;;;;;6.30;3.22;;;16.30;99.90;;;;;;5050707;28;20432;-33
2023/06/04 07:21:01;;;;;;;5.47;3.17;;;16.40;99.90;;;;;;5049172;28;20493;-33
2023/06/04 07:23:27;;;;;;;6.15;3.05;;;16.50;99.90;;;;;;5033376;28;20076;-33
2023/06/04 07:25:54;;;;;;;7.32;2.88;;;16.70;99.90;;;;;;5049791;28;20052;-33
2023/06/04 07:28:20;;;;;;;3.13;2.60;;;16.80;99.90;;;;;;5048922;28;20037;-32
2023/06/04 07:30:46;;;;;;;5.55;2.55;;;16.90;99.90;;;;;;5049851;28;20525;-33
2023/06/04 07:33:12;;;;;;;5.32;2.33;;;17.00;99.90;;;;;;5050067;28;20099;-33
2023/06/04 07:35:38;;;;;;;4.90;2.55;;;17.10;99.90;;;;;;5050085;28;20044;-33
2023/06/04 07:38:03;;;;;;;6.55;2.90;;;17.30;99.90;;;;;;5049844;28;20036;-33
2023/06/04 07:40:30;;;;;;;5.75;2.70;;;17.30;99.90;;;;;;5049709;28;20356;-33
2023/06/04 07:42:55;;;;;;;3.63;2.38;;;17.50;99.90;;;;;;5050249;28;20041;-33
2023/06/04 07:45:21;;;;;;;7.30;2.30;;;17.60;99.90;;;;;;5050220;28;20517;-33
2023/06/04 07:47:47;;;;;;;5.35;2.45;;;17.70;99.90;;;;;;5049910;28;20521;-33
2023/06/04 07:50:13;;;;;;;5.07;2.60;;;17.70;99.90;;;;;;5051007;28;20493;-33
2023/06/04 07:52:38;;;;;;;4.90;2.15;;;17.90;99.90;;;;;;5050057;28;20176;-32
2023/06/04 07:55:05;;;;;;;3.50;2.15;;;18.00;99.90;;;;;;5049809;28;20558;-33
2023/06/04 07:57:31;;;;;;;6.18;2.50;;;18.00;99.90;;;;;;5049662;28;20068;-33
2023/06/04 07:59:57;;;;;;;7.80;2.67;;;18.30;99.90;;;;;;5051535;28;20052;-33
2023/06/04 08:02:23;;;;;;;4.07;2.30;;;18.40;99.90;;;;;;5054993;28;20048;-33
2023/06/04 08:04:49;;;;;;;3.75;1.92;;;18.60;99.90;;;;;;5055283;28;20033;-33
2023/06/04 08:07:15;;;;;;;5.40;1.90;;;18.70;99.90;;;;;;5053814;28;20076;-33
2023/06/04 08:09:41;;;;;;;4.95;1.90;;;18.90;99.90;;;;;;5053524;28;20512;-33
2023/06/04 08:12:07;;;;;;;3.50;1.95;;;19.00;99.90;;;;;;5053615;28;20029;-33
2023/06/04 08:14:33;;;;;;;8.13;2.22;;;19.20;99.90;;;;;;5053466;28;20041;-34
2023/06/04 08:16:58;;;;;;;4.80;1.80;;;19.30;99.90;;;;;;5053540;28;20086;-33
2023/06/04 08:19:24;;;;;;;7.55;2.50;;;19.30;99.90;;;;;;5053666;28;20115;-33
2023/06/04 08:21:50;;;;;;;4.00;1.85;;;19.50;99.90;;;;;;5050510;28;20095;-33
2023/06/04 08:24:16;;;;;;;4.45;1.60;;;19.70;99.90;;;;;;5033356;28;20386;-32
2023/06/04 08:26:42;;;;;;;5.47;1.85;;;19.80;99.90;;;;;;5016847;28;20037;-33
2023/06/04 08:29:08;;;;;;;5.70;2.13;;;19.90;99.90;;;;;;5033326;28;20449;-32
2023/06/04 08:31:34;;;;;;;5.47;2.05;;;20.00;99.90;;;;;;5033596;28;20041;-33
2023/06/04 08:34:00;;;;;;;2.65;1.33;;;20.20;99.90;;;;;;5049826;28;20545;-33
2023/06/04 08:36:27;;;;;;;2.25;1.40;;;20.30;99.90;;;;;;5051773;28;20509;-33
2023/06/04 08:38:53;;;;;;;3.30;1.73;;;20.40;98.80;;;;;;5053206;28;20036;-33
2023/06/04 08:41:34;;;;;;;5.00;1.77;;;20.60;97.40;;;;;;5053127;28;20052;-33
2023/06/04 08:44:02;;;;;;;4.38;2.22;;;20.50;95.50;;;;;;5053372;28;20045;-33
2023/06/04 08:46:32;;;;;;;5.72;1.85;;;20.60;96.00;;;;;;5052629;28;20048;-36
2023/06/04 08:49:03;;;;;;;3.92;1.75;;;20.80;93.60;;;;;;5053028;28;20076;-35
2023/06/04 08:51:33;;;;;;;3.72;1.70;;;21.00;94.10;;;;;;5043284;28;20048;-36
2023/06/04 08:54:00;;;;;;;5.05;2.05;;;21.10;90.10;;;;;;5043143;28;20036;-39
2023/06/04 08:56:28;;;;;;;2.80;1.50;;;21.10;90.00;;;;;;5051664;28;20436;-36
2023/06/04 08:58:59;;;;;;;3.67;1.42;;;21.40;87.10;;;;;;5048507;28;20039;-36
2023/06/04 09:01:25;;;;;;;2.92;1.38;;;21.40;82.40;;;;;;5050894;28;20032;-36
2023/06/04 09:03:51;;;;;;;7.30;1.65;;;21.40;80.40;;;;;;5048515;28;20060;-39
2023/06/04 09:06:17;;;;;;;4.28;1.50;;;21.40;78.10;;;;;;5041533;28;20055;-41
2023/06/04 09:08:44;;;;;;;4.30;1.92;;;21.50;78.10;;;;;;5052970;28;20510;-37
2023/06/04 09:11:13;;;;;;;5.00;1.58;;;21.70;78.20;;;;;;5041722;28;20445;-36
2023/06/04 09:13:42;;;;;;;2.47;1.67;;;21.90;76.40;;;;;;5044163;28;20037;-39
2023/06/04 09:16:07;;;;;;;3.80;1.48;;;22.10;76.10;;;;;;5050798;28;20142;-39
2023/06/04 09:18:33;;;;;;;4.72;1.48;;;22.10;75.90;;;;;;5050263;28;20550;-37
2023/06/04 09:21:07;;;;;;;3.67;1.73;;;22.30;75.20;;;;;;5042374;28;20120;-35
2023/06/04 09:23:43;;;;;;;3.80;1.95;;;22.40;71.50;;;;;;5051199;28;20055;-35
2023/06/04 09:26:10;;;;;;;3.10;1.40;;;22.50;70.50;;;;;;5052507;28;20045;-37
2023/06/04 09:28:43;;;;;;;4.43;1.60;;;22.70;72.60;;;;;;5047563;28;20044;-36
2023/06/04 09:31:13;;;;;;;4.40;1.60;;;22.90;71.50;;;;;;5049457;28;20036;-35
2023/06/04 09:33:51;;;;;;;3.58;2.00;;;23.00;71.20;;;;;;5042551;28;20131;-35
2023/06/04 09:36:17;;;;;;;3.47;1.73;;;23.10;68.90;;;;;;5047032;28;20505;-36
2023/06/04 09:38:43;;;;;;;7.25;2.03;;;23.30;69.90;;;;;;5046803;28;20123;-41
2023/06/04 09:41:13;;;;;;;2.90;1.52;;;23.20;69.20;;;;;;5045233;28;20116;-38
2023/06/04 09:43:40;;;;;;;4.00;1.60;;;23.20;68.10;;;;;;5036514;28;20068;-39
2023/06/04 09:46:13;;;;;;;2.65;1.70;;;23.20;67.90;;;;;;5040805;28;20045;-37
2023/06/04 09:48:40;;;;;;;1.90;1.30;;;23.30;66.70;;;;;;5041992;28;20056;-36
2023/06/04 09:51:08;;;;;;;2.38;1.50;;;23.50;65.50;;;;;;5039120;28;20034;-38
2023/06/04 09:53:38;;;;;;;2.92;1.92;;;23.80;65.60;;;;;;5042512;28;20030;-36
2023/06/04 09:56:06;;;;;;;2.83;1.38;;;23.80;63.10;;;;;;5032911;28;20506;-36
2023/06/04 09:58:32;;;;;;;4.65;1.70;;;23.90;63.50;;;;;;5038434;28;20375;-37
2023/06/04 10:01:00;;;;;;;2.85;1.40;;;24.20;63.90;;;;;;5034814;28;20427;-37
2023/06/04 10:03:30;;;;;;;4.28;1.45;;;24.20;61.70;;;;;;5040520;28;20041;-38
2023/06/04 10:06:01;;;;;;;1.85;1.40;;;24.30;58.40;;;;;;5050751;28;20127;-36
2023/06/04 10:08:35;;;;;;;4.10;1.67;;;24.40;56.50;;;;;;5034580;28;20038;-37
2023/06/04 10:11:02;;;;;;;2.80;1.50;;;24.50;56.00;;;;;;5037566;28;20116;-35
2023/06/04 10:13:31;;;;;;;1.95;1.45;;;24.50;55.80;;;;;;5037836;28;20064;-38
2023/06/04 10:15:58;;;;;;;1.98;1.20;;;24.60;54.80;;;;;;5041290;28;20029;-35
2023/06/04 10:18:26;;;;;;;3.28;1.67;;;24.50;54.90;;;;;;5039184;28;20041;-37
2023/06/04 10:20:55;;;;;;;3.17;1.67;;;24.70;53.80;;;;;;5049557;28;20072;-35
2023/06/04 10:23:22;;;;;;;3.17;1.67;;;24.70;53.60;;;;;;5044391;28;20160;-36
2023/06/04 10:25:50;;;;;;;2.95;1.60;;;25.10;54.40;;;;;;5049216;28;20568;-35
2023/06/04 10:28:19;;;;;;;2.28;1.50;;;25.40;53.60;;;;;;5051144;28;20047;-38
2023/06/04 10:30:46;;;;;;;4.07;1.80;;;25.50;51.90;;;;;;5051013;28;20037;-35
2023/06/04 10:33:13;;;;;;;2.08;1.33;;;25.70;51.40;;;;;;5045438;28;20445;-36
2023/06/04 10:35:39;;;;;;;3.33;1.65;;;25.80;51.30;;;;;;5033230;28;20038;-36
2023/06/04 10:38:13;;;;;;;2.50;1.33;;;26.00;51.60;;;;;;5050809;28;20037;-36
2023/06/04 10:40:39;;;;;;;3.35;1.70;;;26.10;49.00;;;;;;5048544;28;20490;-37
2023/06/04 10:43:10;;;;;;;5.18;1.88;;;26.30;50.20;;;;;;5049041;28;20041;-36
2023/06/04 10:45:36;;;;;;;3.45;1.50;;;26.40;50.10;;;;;;5048754;28;20041;-35
2023/06/04 10:48:04;;;;;;;3.35;1.65;;;26.30;49.90;;;;;;5048636;28;20041;-39
2023/06/04 10:50:31;;;;;;;4.13;1.80;;;26.40;49.50;;;;;;5049098;28;20448;-36
2023/06/04 10:52:58;;;;;;;2.30;1.50;;;26.40;48.10;;;;;;5050154;28;20037;-38
2023/06/04 10:55:25;;;;;;;2.83;1.38;;;26.40;48.60;;;;;;5050266;28;20090;-35
2023/06/04 10:57:56;;;;;;;2.80;1.38;;;26.50;48.80;;;;;;5050485;28;20044;-39
2023/06/04 11:00:22;;;;;;;2.95;1.38;;;26.40;47.70;;;;;;5050634;28;20060;-36
2023/06/04 11:02:55;;;;;;;2.63;1.38;;;26.60;48.40;;;;;;5047255;28;20033;-35
2023/06/04 11:05:21;;;;;;;4.65;1.77;;;26.70;47.30;;;;;;5031071;28;20116;-36
2023/06/04 11:07:50;;;;;;;2.00;1.23;;;26.70;47.10;;;;;;5031047;28;20037;-37
2023/06/04 11:10:17;;;;;;;3.80;1.50;;;26.70;46.70;;;;;;5030639;28;20038;-34
2023/06/04 11:12:50;;;;;;;3.47;1.40;;;26.60;45.80;;;;;;5030342;28;20026;-36
2023/06/04 11:15:16;;;;;;;3.85;1.65;;;26.70;46.20;;;;;;5030459;28;20076;-36
2023/06/04 11:17:50;;;;;;;2.00;1.33;;;26.80;46.30;;;;;;5040256;28;20136;-36
2023/06/04 11:20:20;;;;;;;3.55;1.60;;;26.60;42.70;;;;;;5035690;28;20045;-37
2023/06/04 11:22:57;;;;;;;4.72;1.40;;;26.50;45.80;;;;;;5048657;28;20047;-36
2023/06/04 11:25:28;;;;;;;2.08;1.38;;;26.30;45.80;;;;;;5050329;28;20375;-35
2023/06/04 11:27:55;;;;;;;1.95;1.33;;;26.50;47.20;;;;;;5049489;28;20045;-37
2023/06/04 11:30:21;;;;;;;4.03;1.85;;;26.50;46.70;;;;;;5048455;28;20745;-36
2023/06/04 11:32:47;;;;;;;2.45;1.52;;;26.70;45.30;;;;;;5048608;28;20033;-36
2023/06/04 11:35:13;;;;;;;3.85;1.80;;;26.90;46.70;;;;;;5049122;28;20469;-35
2023/06/04 11:37:40;;;;;;;2.85;1.67;;;27.10;47.50;;;;;;5048659;28;20043;-37
2023/06/04 11:40:17;;;;;;;3.38;1.67;;;27.00;45.70;;;;;;5048210;28;20114;-35
2023/06/04 11:42:43;;;;;;;2.83;1.65;;;27.10;44.30;;;;;;5048888;28;20045;-34
2023/06/04 11:45:12;;;;;;;2.60;1.45;;;27.30;44.50;;;;;;5050246;28;20132;-36
2023/06/04 11:47:37;;;;;;;3.38;1.60;;;27.40;44.00;;;;;;5032998;28;20128;-35
2023/06/04 11:50:04;;;;;;;2.85;1.65;;;27.60;44.30;;;;;;5049915;28;20045;-35
2023/06/04 11:52:29;;;;;;;3.05;1.65;;;27.70;44.50;;;;;;5042848;28;20417;-35
2023/06/04 11:54:56;;;;;;;2.15;1.27;;;27.90;44.70;;;;;;5050107;28;20056;-37
2023/06/04 11:57:22;;;;;;;2.72;1.45;;;28.10;44.60;;;;;;5050325;28;20044;-37
2023/06/04 11:59:48;;;;;;;2.97;1.52;;;28.10;45.00;;;;;;5050469;28;20486;-36
2023/06/04 12:02:14;;;;;;;3.67;1.40;;;28.00;43.60;;;;;;5052952;28;20045;-35
2023/06/04 12:04:40;;;;;;;2.30;1.70;;;28.20;44.50;;;;;;5047636;28;20085;-35
2023/06/04 12:07:08;;;;;;;3.95;1.42;;;28.10;43.90;;;;;;5053252;28;20402;-34
2023/06/04 12:09:35;;;;;;;2.38;1.45;;;28.20;44.60;;;;;;5051998;28;20148;-37
2023/06/04 12:12:02;;;;;;;2.05;1.70;;;28.00;43.80;;;;;;5052677;28;20110;-36
2023/06/04 12:14:29;;;;;;;2.22;1.40;;;28.10;42.70;;;;;;5051407;28;20490;-35
2023/06/04 12:17:05;;;;;;;3.28;1.85;;;28.00;42.70;;;;;;5053386;28;20029;-39
2023/06/04 12:19:31;;;;;;;3.78;1.50;;;27.80;42.90;;;;;;5052012;28;20037;-39
2023/06/04 12:22:07;;;;;;;2.85;1.52;;;28.40;43.50;;;;;;5053730;28;20048;-35
2023/06/04 12:24:35;;;;;;;2.67;1.63;;;28.60;43.10;;;;;;5037473;28;20383;-36
2023/06/04 12:27:08;;;;;;;3.35;1.63;;;28.70;42.90;;;;;;5044150;28;20120;-35
2023/06/04 12:29:34;;;;;;;3.25;1.67;;;28.60;41.80;;;;;;5052261;28;20493;-35
2023/06/04 12:32:15;;;;;;;3.30;1.73;;;28.50;42.10;;;;;;5050411;28;20040;-38
2023/06/04 12:34:41;;;;;;;3.60;1.80;;;28.30;42.00;;;;;;5032182;28;20044;-34
2023/06/04 12:37:07;;;;;;;3.08;1.70;;;28.80;41.50;;;;;;5018729;28;20049;-35
2023/06/04 12:39:36;;;;;;;2.17;1.48;;;29.00;42.50;;;;;;5049013;28;20040;-36
2023/06/04 12:42:03;;;;;;;3.83;1.83;;;29.20;41.50;;;;;;5052946;28;20048;-35
2023/06/04 12:44:29;;;;;;;2.75;1.58;;;29.30;42.70;;;;;;5051795;28;20144;-37
2023/06/04 12:46:54;;;;;;;8.60;2.45;;;29.40;42.50;;;;;;5054451;28;20120;-39
2023/06/04 12:49:20;;;;;;;6.40;2.22;;;29.40;43.80;;;;;;5049160;28;20096;-36